createdAt,value
2018-11-03T00:01:20.534Z,15.43
2018-11-03T00:03:49.301Z,10.80
2018-11-03T00:06:17.995Z,14.03
2018-11-03T00:08:46.806Z,13.37
2018-11-03T00:11:15.723Z,10.37
2018-11-03T00:13:44.639Z,12.07
2018-11-03T00:16:13.350Z,11.63
2018-11-03T00:18:42.130Z,10.57
2018-11-03T00:21:11.035Z,9.43
2018-11-03T00:23:39.764Z,11.37
2018-11-03T00:26:08.428Z,10.17
2018-11-03T00:28:37.014Z,11.17
2018-11-03T00:31:05.824Z,10.83
2018-11-03T00:33:34.583Z,12.63
2018-11-03T00:36:03.233Z,12.63
2018-11-03T00:38:31.845Z,12.27
2018-11-03T00:41:00.622Z,12.53
2018-11-03T00:43:29.523Z,11.27
2018-11-03T00:45:58.262Z,13.93
2018-11-03T00:48:27.042Z,10.40
2018-11-03T00:50:55.938Z,9.53
2018-11-03T00:53:24.676Z,12.10
2018-11-03T00:55:53.306Z,13.40
2018-11-03T00:58:21.938Z,12.80
2018-11-03T01:00:50.725Z,11.90
2018-11-03T01:03:19.390Z,10.80
2018-11-03T01:05:47.943Z,11.73
2018-11-03T01:08:16.728Z,12.77
2018-11-03T01:10:45.652Z,11.27
2018-11-03T01:13:14.546Z,13.93
2018-11-03T01:15:43.215Z,11.87
2018-11-03T01:18:11.831Z,14.37
2018-11-03T01:20:40.437Z,15.27
2018-11-03T01:23:08.994Z,15.17
2018-11-03T01:25:37.597Z,13.77
2018-11-03T01:28:06.229Z,11.23
2018-11-03T01:30:35.070Z,17.27
2018-11-03T01:33:04.015Z,12.87
2018-11-03T01:35:32.562Z,11.20
2018-11-03T01:38:01.158Z,10.93
2018-11-03T01:40:29.942Z,12.57
2018-11-03T01:42:58.625Z,11.80
2018-11-03T01:45:27.435Z,11.63
2018-11-03T01:47:56.332Z,10.20
2018-11-03T01:50:25.059Z,12.07
2018-11-03T01:52:53.666Z,12.80
2018-11-03T01:55:22.548Z,12.70
2018-11-03T01:57:51.478Z,14.80
2018-11-03T02:00:20.438Z,15.30
2018-11-03T02:02:49.172Z,12.87
2018-11-03T02:05:17.949Z,12.87
2018-11-03T02:07:46.838Z,12.63
2018-11-03T02:10:15.924Z,14.30
2018-11-03T02:12:44.824Z,15.03
2018-11-03T02:15:13.518Z,13.50
2018-11-03T02:17:42.269Z,15.60
2018-11-03T02:20:11.970Z,15.30
2018-11-03T02:22:41.022Z,12.37
2018-11-03T02:25:10.237Z,14.03
2018-11-03T02:27:38.877Z,16.30
2018-11-03T02:30:08.343Z,15.43
2018-11-03T02:32:37.065Z,13.10
2018-11-03T02:35:06.135Z,14.27
2018-11-03T02:37:35.025Z,12.43
2018-11-03T02:40:03.940Z,12.43
2018-11-03T02:42:33.908Z,13.97
2018-11-03T02:45:02.778Z,14.00
2018-11-03T02:47:31.683Z,12.60
2018-11-03T02:50:00.574Z,12.97
2018-11-03T02:52:29.481Z,13.57
2018-11-03T02:54:58.639Z,12.93
2018-11-03T02:57:27.423Z,13.43
2018-11-03T02:59:56.074Z,13.70
2018-11-03T03:02:24.661Z,12.67
2018-11-03T03:04:53.546Z,12.93
2018-11-03T03:07:22.478Z,14.53
2018-11-03T03:09:51.390Z,13.93
2018-11-03T03:12:20.446Z,12.73
2018-11-03T03:14:49.113Z,13.30
2018-11-03T03:17:17.931Z,16.73
2018-11-03T03:19:46.681Z,14.87
2018-11-03T03:22:15.378Z,15.17
2018-11-03T03:24:43.949Z,11.53
2018-11-03T03:27:12.599Z,12.97
2018-11-03T03:29:41.437Z,16.83
2018-11-03T03:32:10.125Z,14.10
2018-11-03T03:34:38.635Z,13.17
2018-11-03T03:37:07.426Z,14.03
2018-11-03T03:39:36.931Z,14.60
2018-11-03T03:42:05.831Z,11.50
2018-11-03T03:44:34.727Z,15.33
2018-11-03T03:47:03.525Z,13.50
2018-11-03T03:49:32.306Z,10.93
2018-11-03T03:52:00.998Z,17.87
2018-11-03T03:54:29.608Z,20.87
2018-11-03T03:56:58.254Z,17.67
2018-11-03T03:59:27.056Z,15.07
2018-11-03T04:01:55.945Z,14.43
2018-11-03T04:04:24.721Z,15.20
2018-11-03T04:06:53.510Z,12.27
2018-11-03T04:09:22.194Z,16.60
2018-11-03T04:11:50.983Z,14.10
2018-11-03T04:14:20.042Z,16.37
2018-11-03T04:16:48.711Z,18.50
2018-11-03T04:19:17.494Z,19.17
2018-11-03T04:21:46.197Z,22.50
2018-11-03T04:24:14.983Z,14.57
2018-11-03T04:26:43.793Z,16.40
2018-11-03T04:29:12.566Z,15.70
2018-11-03T04:31:41.463Z,12.37
2018-11-03T04:34:10.195Z,14.97
2018-11-03T04:36:38.824Z,11.07
2018-11-03T04:39:07.819Z,12.57
2018-11-03T04:41:36.713Z,15.13
2018-11-03T04:44:05.627Z,13.73
2018-11-03T04:46:34.531Z,18.60
2018-11-03T04:49:04.051Z,13.77
2018-11-03T04:51:34.189Z,16.43
2018-11-03T04:54:02.975Z,11.83
2018-11-03T04:56:31.882Z,15.23
2018-11-03T04:59:00.782Z,18.33
2018-11-03T05:01:29.810Z,16.43
2018-11-03T05:03:58.559Z,16.20
2018-11-03T05:06:27.338Z,16.30
2018-11-03T05:08:56.032Z,15.53
2018-11-03T05:11:24.662Z,13.60
2018-11-03T05:13:53.460Z,18.87
2018-11-03T05:16:22.126Z,15.53
2018-11-03T05:18:50.896Z,15.47
2018-11-03T05:21:19.859Z,16.93
2018-11-03T05:23:48.834Z,15.67
2018-11-03T05:26:17.709Z,14.67
2018-11-03T05:28:46.393Z,15.43
2018-11-03T05:31:15.333Z,16.73
2018-11-03T05:33:44.002Z,15.97
2018-11-03T05:36:12.787Z,15.47
2018-11-03T05:38:41.525Z,25.60
2018-11-03T05:41:10.096Z,12.70
2018-11-03T05:43:38.867Z,14.53
2018-11-03T05:46:07.769Z,15.57
2018-11-03T05:48:36.743Z,15.70
2018-11-03T05:51:05.662Z,18.93
2018-11-03T05:53:34.449Z,15.47
2018-11-03T05:56:03.187Z,15.43
2018-11-03T05:58:32.088Z,12.70
2018-11-03T06:01:00.780Z,20.57
2018-11-03T06:03:29.334Z,14.37
2018-11-03T06:05:57.967Z,37.80
2018-11-03T06:08:26.760Z,23.10
2018-11-03T06:10:55.646Z,15.70
2018-11-03T06:13:24.385Z,16.77
2018-11-03T06:15:53.171Z,18.33
2018-11-03T06:18:21.962Z,16.33
2018-11-03T06:20:50.762Z,15.13
2018-11-03T06:23:19.576Z,12.50
2018-11-03T06:25:48.162Z,14.07
2018-11-03T06:28:16.972Z,19.37
2018-11-03T06:30:45.894Z,14.37
2018-11-03T06:33:14.579Z,15.00
2018-11-03T06:35:43.217Z,18.53
2018-11-03T06:38:12.010Z,15.50
2018-11-03T06:40:41.063Z,14.67
2018-11-03T06:43:09.974Z,21.97
2018-11-03T06:45:38.945Z,16.53
2018-11-03T06:48:07.851Z,15.80
2018-11-03T06:50:36.776Z,17.00
2018-11-03T06:53:05.435Z,22.40
2018-11-03T06:55:34.035Z,17.57
2018-11-03T06:58:02.982Z,22.03
2018-11-03T07:00:31.532Z,19.27
2018-11-03T07:03:00.303Z,18.83
2018-11-03T07:05:29.206Z,15.93
2018-11-03T07:07:57.885Z,18.83
2018-11-03T07:10:27.627Z,18.13
2018-11-03T07:12:56.623Z,16.63
2018-11-03T07:15:25.260Z,20.57
2018-11-03T07:17:53.879Z,20.43
2018-11-03T07:20:22.670Z,21.73
2018-11-03T07:22:51.333Z,17.83
2018-11-03T07:25:20.119Z,18.50
2018-11-03T07:27:49.007Z,23.63
2018-11-03T07:30:17.922Z,20.43
2018-11-03T07:32:46.603Z,25.40
2018-11-03T07:35:15.210Z,23.40
2018-11-03T07:37:44.034Z,17.27
2018-11-03T07:40:12.939Z,20.77
2018-11-03T07:42:42.607Z,18.27
2018-11-03T07:45:11.129Z,23.77
2018-11-03T07:47:40.465Z,20.83
2018-11-03T07:50:11.219Z,21.73
2018-11-03T07:52:40.254Z,18.77
2018-11-03T07:55:10.634Z,18.70
2018-11-03T07:57:39.602Z,17.07
2018-11-03T08:00:09.189Z,23.83
2018-11-03T08:02:38.059Z,23.63
2018-11-03T08:05:07.186Z,18.70
2018-11-03T08:07:35.980Z,17.80
2018-11-03T08:10:04.941Z,19.50
2018-11-03T08:12:33.727Z,20.70
2018-11-03T08:15:02.811Z,22.50
2018-11-03T08:17:31.743Z,18.07
2018-11-03T08:20:00.658Z,21.37
2018-11-03T08:22:29.321Z,20.20
2018-11-03T08:24:58.120Z,20.47
2018-11-03T08:27:27.018Z,21.77
2018-11-03T08:29:55.928Z,21.57
2018-11-03T08:32:24.807Z,22.47
2018-11-03T08:34:53.583Z,21.40
2018-11-03T08:37:22.262Z,19.60
2018-11-03T08:39:51.103Z,22.73
2018-11-03T08:42:19.752Z,23.27
2018-11-03T08:44:48.550Z,20.83
2018-11-03T08:47:17.470Z,22.20
2018-11-03T08:49:46.279Z,20.43
2018-11-03T08:52:14.874Z,23.13
2018-11-03T08:54:43.658Z,22.20
2018-11-03T08:57:12.345Z,23.30
2018-11-03T08:59:41.265Z,26.23
2018-11-03T09:02:09.810Z,22.47
2018-11-03T09:04:38.586Z,22.70
2018-11-03T09:07:07.353Z,22.30
2018-11-03T09:09:36.087Z,23.27
2018-11-03T09:12:04.871Z,24.43
2018-11-03T09:14:33.736Z,27.43
2018-11-03T09:17:02.555Z,21.40
2018-11-03T09:19:31.250Z,26.43
2018-11-03T09:21:59.806Z,23.13
2018-11-03T09:24:28.364Z,22.33
2018-11-03T09:26:57.222Z,25.20
2018-11-03T09:29:26.120Z,23.63
2018-11-03T09:31:54.907Z,27.67
2018-11-03T09:34:23.723Z,22.53
2018-11-03T09:36:52.474Z,27.00
2018-11-03T09:39:21.265Z,24.70
2018-11-03T09:41:49.890Z,33.57
2018-11-03T09:44:18.682Z,26.70
2018-11-03T09:46:47.588Z,28.30
2018-11-03T09:49:16.264Z,27.00
2018-11-03T09:51:44.830Z,23.67
2018-11-03T09:54:13.380Z,26.03
2018-11-03T09:56:42.237Z,24.47
2018-11-03T09:59:11.437Z,27.50
2018-11-03T10:01:40.001Z,26.60
2018-11-03T10:04:08.789Z,26.50
2018-11-03T10:06:37.468Z,32.07
2018-11-03T10:09:06.811Z,27.60
2018-11-03T10:11:35.620Z,27.57
2018-11-03T10:14:04.150Z,29.83
2018-11-03T10:16:32.952Z,25.60
2018-11-03T10:19:01.894Z,28.33
2018-11-03T10:21:30.829Z,27.77
2018-11-03T10:23:59.775Z,25.67
2018-11-03T10:26:28.470Z,24.53
2018-11-03T10:28:57.298Z,25.77
2018-11-03T10:31:26.204Z,26.00
2018-11-03T10:33:54.890Z,25.73
2018-11-03T10:36:23.683Z,20.77
2018-11-03T10:38:52.574Z,22.43
2018-11-03T10:41:21.359Z,21.30
2018-11-03T10:43:50.123Z,24.60
2018-11-03T10:46:18.940Z,26.60
2018-11-03T10:48:47.914Z,23.87
2018-11-03T10:51:16.822Z,23.63
2018-11-03T10:53:45.778Z,24.67
2018-11-03T10:56:14.403Z,23.57
2018-11-03T10:58:43.220Z,20.63
2018-11-03T11:01:17.735Z,24.67
2018-11-03T11:03:52.025Z,21.77
2018-11-03T11:06:26.039Z,24.43
2018-11-03T11:09:00.329Z,28.40
2018-11-03T11:11:34.799Z,20.57
2018-11-03T11:14:03.765Z,22.67
2018-11-03T11:16:32.732Z,20.63
2018-11-03T11:19:01.408Z,19.83
2018-11-03T11:21:29.962Z,23.17
2018-11-03T11:23:58.620Z,23.47
2018-11-03T11:26:27.507Z,18.67
2018-11-03T11:28:56.185Z,20.47
2018-11-03T11:31:24.801Z,19.83
2018-11-03T11:33:53.535Z,19.57
2018-11-03T11:36:22.235Z,17.63
2018-11-03T11:38:51.010Z,20.17
2018-11-03T11:41:19.698Z,22.17
2018-11-03T11:43:48.479Z,21.10
2018-11-03T11:46:17.394Z,16.57
2018-11-03T11:48:46.105Z,16.93
2018-11-03T11:51:14.883Z,18.00
2018-11-03T11:53:43.550Z,17.80
2018-11-03T11:56:12.150Z,18.57
2018-11-03T11:58:40.727Z,17.20
2018-11-03T12:01:09.281Z,17.77
2018-11-03T12:03:38.119Z,17.13
2018-11-03T12:06:07.079Z,16.93
2018-11-03T12:08:35.978Z,12.00
2018-11-03T12:11:04.971Z,13.20
2018-11-03T12:13:33.897Z,11.87
2018-11-03T12:16:02.665Z,13.13
2018-11-03T12:18:31.147Z,16.07
2018-11-03T12:20:59.918Z,16.37
2018-11-03T12:23:28.609Z,13.87
2018-11-03T12:25:57.363Z,12.33
2018-11-03T12:28:26.290Z,12.50
2018-11-03T12:30:55.185Z,10.50
2018-11-03T12:33:24.112Z,9.63
2018-11-03T12:35:52.793Z,17.67
2018-11-03T12:38:21.555Z,13.57
2018-11-03T12:40:50.257Z,13.93
2018-11-03T12:43:19.015Z,12.87
2018-11-03T12:45:47.932Z,12.53
2018-11-03T12:48:16.928Z,14.13
2018-11-03T12:50:45.755Z,13.67
2018-11-03T12:53:14.677Z,12.03
2018-11-03T12:55:43.354Z,14.70
2018-11-03T12:58:11.926Z,14.33
2018-11-03T13:00:40.502Z,13.70
2018-11-03T13:03:09.107Z,13.03
2018-11-03T13:05:37.976Z,11.47
2018-11-03T13:08:06.780Z,10.53
2018-11-03T13:10:35.445Z,14.50
2018-11-03T13:13:03.985Z,13.20
2018-11-03T13:15:32.800Z,13.27
2018-11-03T13:18:01.687Z,11.60
2018-11-03T13:20:30.358Z,12.97
2018-11-03T13:22:59.158Z,12.00
2018-11-03T13:25:28.034Z,14.07
2018-11-03T13:27:56.928Z,11.43
2018-11-03T13:30:25.594Z,9.87
2018-11-03T13:32:54.403Z,13.80
2018-11-03T13:35:23.054Z,15.53
2018-11-03T13:37:51.888Z,12.27
2018-11-03T13:40:20.567Z,11.80
2018-11-03T13:42:49.357Z,15.10
2018-11-03T13:45:18.268Z,11.70
2018-11-03T13:47:47.192Z,10.13
2018-11-03T13:50:16.961Z,9.60
2018-11-03T13:52:47.043Z,12.53
2018-11-03T13:55:15.982Z,12.97
2018-11-03T13:57:45.767Z,10.70
2018-11-03T14:00:16.606Z,13.10
2018-11-03T14:02:46.199Z,12.03
2018-11-03T14:05:15.220Z,13.67
2018-11-03T14:07:44.183Z,12.43
2018-11-03T14:10:14.504Z,15.47
2018-11-03T14:12:43.842Z,13.90
2018-11-03T14:15:13.800Z,14.13
2018-11-03T14:17:42.734Z,11.67
2018-11-03T14:20:12.768Z,13.80
2018-11-03T14:22:42.301Z,14.07
2018-11-03T14:25:12.750Z,14.10
2018-11-03T14:27:42.815Z,13.80
2018-11-03T14:30:12.372Z,15.20
2018-11-03T14:32:41.261Z,13.20
2018-11-03T14:35:11.008Z,16.77
2018-11-03T14:37:40.356Z,18.17
2018-11-03T14:40:12.394Z,14.97
2018-11-03T14:42:42.021Z,14.87
2018-11-03T14:45:11.496Z,17.53
2018-11-03T14:47:40.026Z,16.07
2018-11-03T14:50:09.147Z,16.63
2018-11-03T14:52:39.241Z,13.47
2018-11-03T14:55:09.034Z,13.83
2018-11-03T14:57:37.824Z,19.53
2018-11-03T15:00:09.615Z,18.50
2018-11-03T15:02:38.446Z,17.50
2018-11-03T15:05:07.665Z,16.77
2018-11-03T15:07:36.663Z,16.23
2018-11-03T15:10:06.707Z,15.87
2018-11-03T15:12:35.397Z,15.00
2018-11-03T15:15:03.975Z,13.20
2018-11-03T15:17:32.749Z,13.63
2018-11-03T15:20:01.407Z,16.13
2018-11-03T15:22:30.268Z,12.00
2018-11-03T15:24:59.140Z,14.50
2018-11-03T15:27:28.003Z,12.57
2018-11-03T15:29:56.911Z,17.17
2018-11-03T15:32:25.604Z,13.93
2018-11-03T15:34:54.412Z,14.83
2018-11-03T15:37:23.398Z,15.43
2018-11-03T15:39:52.302Z,29.53
2018-11-03T15:42:21.051Z,15.90
2018-11-03T15:44:49.637Z,13.27
2018-11-03T15:47:18.434Z,14.57
2018-11-03T15:49:47.106Z,15.63
2018-11-03T15:52:15.659Z,19.10
2018-11-03T15:54:44.237Z,16.63
2018-11-03T15:57:13.042Z,17.37
2018-11-03T15:59:41.918Z,15.73
2018-11-03T16:02:10.616Z,16.93
2018-11-03T16:04:39.383Z,19.03
2018-11-03T16:07:08.282Z,16.27
2018-11-03T16:09:37.191Z,15.73
2018-11-03T16:12:06.160Z,14.67
2018-11-03T16:14:34.613Z,15.57
2018-11-03T16:17:03.390Z,16.27
2018-11-03T16:19:32.366Z,15.23
2018-11-03T16:22:00.971Z,16.27
2018-11-03T16:24:29.795Z,14.63
2018-11-03T16:26:58.467Z,17.00
2018-11-03T16:29:27.389Z,19.17
2018-11-03T16:31:56.073Z,14.17
2018-11-03T16:34:24.853Z,13.40
2018-11-03T16:36:53.984Z,15.57
2018-11-03T16:39:22.662Z,16.50
2018-11-03T16:41:51.452Z,15.97
2018-11-03T16:44:20.380Z,12.27
2018-11-03T16:46:49.146Z,12.43
2018-11-03T16:49:19.547Z,14.10
2018-11-03T16:51:48.451Z,16.97
2018-11-03T16:54:17.366Z,14.93
2018-11-03T16:56:46.565Z,16.87
2018-11-03T16:59:15.321Z,18.93
2018-11-03T17:01:44.061Z,16.30
2018-11-03T17:04:13.008Z,12.33
2018-11-03T17:06:41.932Z,14.87
2018-11-03T17:09:10.652Z,19.47
2018-11-03T17:11:39.380Z,15.50
2018-11-03T17:14:08.411Z,15.10
2018-11-03T17:16:37.316Z,16.40
2018-11-03T17:19:05.999Z,18.90
2018-11-03T17:21:34.610Z,21.40
2018-11-03T17:24:03.402Z,18.30
2018-11-03T17:26:32.179Z,17.40
2018-11-03T17:29:00.981Z,18.30
2018-11-03T17:31:29.895Z,19.30
2018-11-03T17:33:58.614Z,16.00
2018-11-03T17:36:27.208Z,19.30
2018-11-03T17:38:55.760Z,17.70
2018-11-03T17:41:24.301Z,18.67
2018-11-03T17:43:52.952Z,15.70
2018-11-03T17:46:21.682Z,17.13
2018-11-03T17:48:50.598Z,13.90
2018-11-03T17:51:19.275Z,14.90
2018-11-03T17:53:47.846Z,15.37
2018-11-03T17:56:16.398Z,15.10
2018-11-03T17:58:45.189Z,15.60
2018-11-03T18:01:14.168Z,13.70
2018-11-03T18:03:43.123Z,13.50
2018-11-03T18:06:11.950Z,15.27
2018-11-03T18:08:40.614Z,16.00
2018-11-03T18:11:09.378Z,16.20
2018-11-03T18:13:38.287Z,16.13
2018-11-03T18:16:07.363Z,15.50
2018-11-03T18:18:36.100Z,16.53
2018-11-03T18:21:04.691Z,16.77
2018-11-03T18:23:33.486Z,16.57
2018-11-03T18:26:02.279Z,17.27
2018-11-03T18:28:30.988Z,13.70
2018-11-03T18:30:59.911Z,18.23
2018-11-03T18:33:28.619Z,14.57
2018-11-03T18:35:57.336Z,15.93
2018-11-03T18:38:25.998Z,14.97
2018-11-03T18:40:54.781Z,15.97
2018-11-03T18:43:23.670Z,15.90
2018-11-03T18:45:52.578Z,18.60
2018-11-03T18:48:21.241Z,12.33
2018-11-03T18:50:49.789Z,15.93
2018-11-03T18:53:18.572Z,14.80
2018-11-03T18:55:47.470Z,16.50
2018-11-03T18:58:16.175Z,19.53
2018-11-03T19:00:44.810Z,13.77
2018-11-03T19:03:13.447Z,17.20
2018-11-03T19:05:42.222Z,14.10
2018-11-03T19:08:11.119Z,16.07
2018-11-03T19:10:40.058Z,18.03
2018-11-03T19:13:08.824Z,13.73
2018-11-03T19:15:37.578Z,15.90
2018-11-03T19:18:06.260Z,14.70
2018-11-03T19:20:34.908Z,16.00
2018-11-03T19:23:03.694Z,17.57
2018-11-03T19:25:32.369Z,14.57
2018-11-03T19:28:00.909Z,16.10
2018-11-03T19:30:29.463Z,15.70
2018-11-03T19:32:58.026Z,15.23
2018-11-03T19:35:26.669Z,13.93
2018-11-03T19:37:55.225Z,14.60
2018-11-03T19:40:24.031Z,15.87
2018-11-03T19:42:52.701Z,13.73
2018-11-03T19:45:21.271Z,15.77
2018-11-03T19:47:49.825Z,13.23
2018-11-03T19:50:18.613Z,17.07
2018-11-03T19:52:47.289Z,16.03
2018-11-03T19:55:16.119Z,21.70
2018-11-03T19:57:45.035Z,14.43
2018-11-03T20:00:14.888Z,17.90
2018-11-03T20:02:43.882Z,16.73
2018-11-03T20:05:12.726Z,19.20
2018-11-03T20:07:42.539Z,16.93
2018-11-03T20:10:11.642Z,16.10
2018-11-03T20:12:40.490Z,13.40
2018-11-03T20:15:10.494Z,15.27
2018-11-03T20:17:39.545Z,16.63
2018-11-03T20:20:09.839Z,15.50
2018-11-03T20:22:38.561Z,16.77
2018-11-03T20:25:07.953Z,15.53
2018-11-03T20:27:36.571Z,16.00
2018-11-03T20:30:07.756Z,16.10
2018-11-03T20:32:36.514Z,15.93
2018-11-03T20:35:05.717Z,16.83
2018-11-03T20:37:34.684Z,19.43
2018-11-03T20:40:03.518Z,19.43
2018-11-03T20:42:32.296Z,17.70
2018-11-03T20:45:01.253Z,17.47
2018-11-03T20:47:30.171Z,19.67
2018-11-03T20:49:58.887Z,21.07
2018-11-03T20:52:27.644Z,14.37
2018-11-03T20:54:56.313Z,15.27
2018-11-03T20:57:25.092Z,18.90
2018-11-03T20:59:53.766Z,15.13
2018-11-03T21:02:22.317Z,19.47
2018-11-03T21:04:51.701Z,17.07
2018-11-03T21:07:20.481Z,14.83
2018-11-03T21:09:49.398Z,15.67
2018-11-03T21:12:18.078Z,14.83
2018-11-03T21:14:46.641Z,14.43
2018-11-03T21:17:15.431Z,15.30
2018-11-03T21:19:44.347Z,14.33
2018-11-03T21:22:13.533Z,17.83
2018-11-03T21:24:42.210Z,14.73
2018-11-03T21:27:11.446Z,16.23
2018-11-03T21:29:40.312Z,16.03
2018-11-03T21:32:09.510Z,16.23
2018-11-03T21:34:38.236Z,14.57
2018-11-03T21:37:06.770Z,14.63
2018-11-03T21:39:35.562Z,16.37
2018-11-03T21:42:05.589Z,12.17
2018-11-03T21:44:34.370Z,16.93
2018-11-03T21:47:03.348Z,16.70
2018-11-03T21:49:31.946Z,15.67
2018-11-03T21:52:00.534Z,14.40
2018-11-03T21:54:29.093Z,13.77
2018-11-03T21:56:57.891Z,13.97
2018-11-03T21:59:26.558Z,13.80
2018-11-03T22:01:55.372Z,14.13
2018-11-03T22:04:24.066Z,12.83
2018-11-03T22:06:52.606Z,13.00
2018-11-03T22:09:21.154Z,12.23
2018-11-03T22:11:49.722Z,12.87
2018-11-03T22:14:18.511Z,15.57
2018-11-03T22:16:47.464Z,15.17
2018-11-03T22:19:16.135Z,11.87
2018-11-03T22:21:44.983Z,14.93
2018-11-03T22:24:13.582Z,13.67
2018-11-03T22:26:42.177Z,16.23
2018-11-03T22:29:10.776Z,14.20
2018-11-03T22:31:39.506Z,12.17
2018-11-03T22:34:08.497Z,16.70
2018-11-03T22:36:37.075Z,13.30
2018-11-03T22:39:07.498Z,16.90
2018-11-03T22:41:36.438Z,18.03
2018-11-03T22:44:05.381Z,14.87
2018-11-03T22:46:34.469Z,14.30
2018-11-03T22:49:03.456Z,15.77
2018-11-03T22:51:32.481Z,15.67
2018-11-03T22:54:01.355Z,15.17
2018-11-03T22:56:30.026Z,17.23
2018-11-03T22:58:58.796Z,15.97
2018-11-03T23:01:27.599Z,17.23
2018-11-03T23:03:56.514Z,15.30
2018-11-03T23:06:25.195Z,18.37
2018-11-03T23:08:54.004Z,18.17
2018-11-03T23:11:22.690Z,15.17
2018-11-03T23:13:51.347Z,17.93
2018-11-03T23:16:19.874Z,17.17
2018-11-03T23:18:48.619Z,14.90
2018-11-03T23:21:17.520Z,17.30
2018-11-03T23:23:46.234Z,15.00
2018-11-03T23:26:15.027Z,14.97
2018-11-03T23:28:43.698Z,19.73
2018-11-03T23:31:12.483Z,17.40
2018-11-03T23:33:41.426Z,15.83
2018-11-03T23:36:10.351Z,19.63
2018-11-03T23:38:39.307Z,15.07
2018-11-03T23:41:07.947Z,17.27
2018-11-03T23:43:36.723Z,14.77
2018-11-03T23:46:05.909Z,18.07
2018-11-03T23:48:34.820Z,16.97
2018-11-03T23:51:03.743Z,16.57
2018-11-03T23:53:32.422Z,18.63
2018-11-03T23:56:01.197Z,17.70
2018-11-03T23:58:29.880Z,19.13
